Time;durP1;ratioP1;P1;durP2;ratioP2;P2;SDS_P1;SDS_P2;PMS_P1;PMS_P2;Temp;Humidity;BMP_temperature;BMP_pressure;BME280_temperature;BME280_humidity;BME280_pressure;Samples;Min_cycle;Max_cycle;Signal;HPM_P1;HPM_P2
2022/03/09 00:00:16;;;;;;;9.77;4.50;;;;;;;-144.19;100.00;78837.63;6216309;23;20027;-84
2022/03/09 00:02:43;;;;;;;8.73;5.23;;;;;;;-144.19;100.00;78829.75;6188961;23;20020;-84
2022/03/09 00:05:09;;;;;;;7.32;4.85;;;;;;;-144.19;100.00;78817.94;6215729;23;20024;-84
2022/03/09 00:07:36;;;;;;;7.40;4.63;;;;;;;-144.19;100.00;78792.34;6189841;23;20097;-84
2022/03/09 00:10:06;;;;;;;8.10;5.00;;;;;;;-144.19;100.00;78776.56;6215940;23;20032;-84
2022/03/09 00:12:33;;;;;;;7.15;4.80;;;;;;;-144.19;100.00;78756.88;6215796;23;20523;-83
2022/03/09 00:14:59;;;;;;;8.27;5.05;;;;;;;-144.19;100.00;78772.63;6189363;23;20087;-84
2022/03/09 00:17:26;;;;;;;9.30;5.30;;;;;;;-144.19;100.00;78756.88;6185228;23;20012;-84
2022/03/09 00:19:52;;;;;;;8.55;4.93;;;;;;;-144.19;100.00;78752.94;6188408;23;20025;-85
2022/03/09 00:22:19;;;;;;;8.05;4.43;;;;;;;-144.19;100.00;78727.34;6188611;23;20465;-83
2022/03/09 00:24:46;;;;;;;11.20;5.38;;;;;;;-144.19;100.00;78733.25;6215898;23;20043;-83
2022/03/09 00:27:12;;;;;;;8.38;5.40;;;;;;;-144.19;100.00;78752.94;6216558;23;20035;-84
2022/03/09 00:29:39;;;;;;;7.93;5.10;;;;;;;-144.19;100.00;78776.56;6215409;23;20475;-84
2022/03/09 00:32:06;;;;;;;10.20;5.37;;;;;;;-144.19;100.00;78792.34;6214764;23;20036;-83
2022/03/09 00:34:34;;;;;;;7.28;4.80;;;;;;;-144.19;100.00;78810.06;6216621;23;20020;-84
2022/03/09 00:37:00;;;;;;;9.60;5.28;;;;;;;-144.19;100.00;78819.91;6216162;23;20020;-82
2022/03/09 00:39:27;;;;;;;6.80;5.00;;;;;;;-144.19;100.00;78831.72;6189538;23;20096;-84
2022/03/09 00:41:53;;;;;;;10.45;4.97;;;;;;;-144.19;100.00;78859.28;6189705;23;20035;-86
2022/03/09 00:44:20;;;;;;;10.80;5.37;;;;;;;-144.19;100.00;78827.78;6215755;23;20556;-83
2022/03/09 00:46:46;;;;;;;6.50;4.78;;;;;;;-144.19;100.00;78817.94;6216127;23;20020;-83
2022/03/09 00:49:13;;;;;;;9.18;5.90;;;;;;;-144.19;100.00;78798.25;6216500;23;20484;-84
2022/03/09 00:51:39;;;;;;;9.80;5.63;;;;;;;-144.19;100.00;78819.91;6189023;23;20461;-84
2022/03/09 00:54:06;;;;;;;10.90;5.10;;;;;;;-144.19;100.00;78859.28;6188915;23;20288;-85
2022/03/09 00:56:33;;;;;;;10.53;5.57;;;;;;;-144.19;100.00;78884.91;6187798;23;20025;-85
2022/03/09 00:58:59;;;;;;;9.50;4.93;;;;;;;-144.19;100.00;78879.00;6187986;23;20058;-86
2022/03/09 01:01:26;;;;;;;8.47;5.10;;;;;;;-144.19;100.00;78863.22;6212313;23;20017;-85
2022/03/09 01:03:53;;;;;;;8.25;4.70;;;;;;;-144.19;100.00;78902.63;6187560;23;20024;-82
2022/03/09 01:06:19;;;;;;;7.38;4.88;;;;;;;-144.19;100.00;78906.56;6215773;23;20026;-84
2022/03/09 01:08:45;;;;;;;8.48;4.90;;;;;;;-144.19;100.00;78910.50;6214263;23;20023;-85
2022/03/09 01:11:12;;;;;;;7.17;4.40;;;;;;;-144.19;100.00;78904.59;6213913;23;20464;-84
2022/03/09 01:13:41;;;;;;;8.73;5.28;;;;;;;-144.19;100.00;78890.81;6187852;23;20021;-85
2022/03/09 01:16:08;;;;;;;8.15;5.00;;;;;;;-144.19;100.00;78884.91;6189729;23;20052;-82
2022/03/09 01:18:35;;;;;;;8.98;5.82;;;;;;;-144.19;100.00;78851.41;6210103;23;20017;-83
2022/03/09 01:21:01;;;;;;;8.82;5.47;;;;;;;-144.19;100.00;78859.28;6213766;23;20041;-84
2022/03/09 01:23:31;;;;;;;8.43;4.75;;;;;;;-144.19;100.00;78855.34;6210792;23;20087;-84
2022/03/09 01:25:58;;;;;;;10.18;5.68;;;;;;;-144.19;100.00;78867.16;6214658;23;20028;-83
2022/03/09 01:28:27;;;;;;;8.98;5.15;;;;;;;-144.19;100.00;78888.84;6189461;23;20079;-83
2022/03/09 01:30:53;;;;;;;8.03;5.13;;;;;;;-144.19;100.00;78914.44;6215374;23;20052;-84
2022/03/09 01:33:20;;;;;;;9.73;5.15;;;;;;;-144.19;100.00;78906.56;6189348;23;20244;-83
2022/03/09 01:35:48;;;;;;;9.52;5.20;;;;;;;-144.19;100.00;78902.63;6215533;23;20024;-83
2022/03/09 01:38:17;;;;;;;11.55;5.63;;;;;;;-144.19;100.00;78886.88;6216072;23;20468;-83
2022/03/09 01:40:48;;;;;;;11.55;5.60;;;;;;;-144.19;100.00;78884.91;6189293;23;20095;-83
2022/03/09 01:43:26;;;;;;;9.18;5.25;;;;;;;-144.19;100.00;78882.94;6215157;23;20052;-83
2022/03/09 01:45:53;;;;;;;8.48;5.45;;;;;;;-144.19;100.00;78882.94;6215827;23;20059;-83
2022/03/09 01:48:22;;;;;;;10.63;5.93;;;;;;;-144.19;100.00;78894.75;6189993;23;20048;-83
2022/03/09 01:50:52;;;;;;;9.15;5.25;;;;;;;-144.19;100.00;78871.13;6192655;23;20020;-85
2022/03/09 01:53:22;;;;;;;7.30;4.97;;;;;;;-144.19;100.00;78867.16;6207700;23;20545;-85
2022/03/09 01:55:55;;;;;;;11.20;5.90;;;;;;;-144.19;100.00;78859.28;6209474;23;20029;-83
2022/03/09 01:58:21;;;;;;;10.52;6.03;;;;;;;-144.19;100.00;78851.41;6226238;23;20016;-85
2022/03/09 02:00:51;;;;;;;11.13;5.47;;;;;;;-144.19;100.00;78845.50;6190982;23;20032;-86
2022/03/09 02:03:17;;;;;;;10.20;5.55;;;;;;;-144.19;100.00;78845.50;6216171;23;20040;-84
2022/03/09 02:05:47;;;;;;;8.98;5.65;;;;;;;-144.19;100.00;78851.41;6217350;23;20016;-84
2022/03/09 02:11:02;;;;;;;8.93;4.93;;;;;;;-144.19;100.00;78904.59;6217618;23;20544;-85
2022/03/09 02:13:29;;;;;;;9.15;5.30;;;;;;;-144.19;100.00;78888.84;6190647;23;20020;-84
2022/03/09 02:15:55;;;;;;;11.27;5.70;;;;;;;-144.19;100.00;78879.00;6218016;23;20503;-82
2022/03/09 02:18:22;;;;;;;11.48;5.38;;;;;;;-144.19;100.00;78880.97;6215819;23;20016;-85
2022/03/09 02:20:50;;;;;;;8.30;4.87;;;;;;;-144.19;100.00;78910.50;6217651;23;20481;-86
2022/03/09 02:23:16;;;;;;;9.00;5.75;;;;;;;-144.19;100.00;78918.38;6217916;23;20024;-84
2022/03/09 02:25:42;;;;;;;8.17;5.63;;;;;;;-144.19;100.00;78914.44;6219583;23;20032;-85
2022/03/09 02:28:09;;;;;;;9.77;5.30;;;;;;;-144.19;100.00;78884.91;6191557;23;20086;-85
2022/03/09 02:30:35;;;;;;;7.47;4.93;;;;;;;-144.19;100.00;78892.78;6191520;23;20059;-85
2022/03/09 02:33:04;;;;;;;7.93;4.85;;;;;;;-144.19;100.00;78930.19;6190060;23;20107;-86
2022/03/09 02:35:31;;;;;;;10.05;5.45;;;;;;;-144.19;100.00;78961.72;6190297;23;20096;-86
2022/03/09 02:37:58;;;;;;;9.50;5.60;;;;;;;-144.19;100.00;78981.41;6190103;23;20023;-86
2022/03/09 02:40:24;;;;;;;7.35;5.47;;;;;;;-144.19;100.00;78955.81;6190579;23;20024;-85
2022/03/09 02:42:52;;;;;;;8.77;5.32;;;;;;;-144.19;100.00;78934.13;6189703;23;20016;-86
2022/03/09 02:45:18;;;;;;;9.15;5.13;;;;;;;-144.19;100.00;78947.94;6190939;23;20108;-85
2022/03/09 02:47:46;;;;;;;7.78;5.10;;;;;;;-144.19;100.00;78999.13;6214646;23;20013;-85
2022/03/09 02:50:15;;;;;;;10.30;5.63;;;;;;;-144.19;100.00;78993.22;6215732;23;20163;-86
2022/03/09 02:52:44;;;;;;;8.25;5.20;;;;;;;-144.19;100.00;78971.56;6188573;23;20020;-85
2022/03/09 02:55:11;;;;;;;8.48;5.03;;;;;;;-144.19;100.00;78973.53;6188700;23;20306;-85
2022/03/09 02:57:38;;;;;;;11.27;5.38;;;;;;;-144.19;100.00;79001.09;6188867;23;20013;-85
2022/03/09 03:00:07;;;;;;;9.93;5.30;;;;;;;-144.19;100.00;79026.72;6187700;23;20453;-85
2022/03/09 03:02:35;;;;;;;9.88;5.18;;;;;;;-144.19;100.00;79040.50;6212615;23;20021;-86
2022/03/09 03:05:02;;;;;;;8.15;6.20;;;;;;;-144.19;100.00;79048.38;6214141;23;20464;-86
2022/03/09 03:07:29;;;;;;;11.05;6.10;;;;;;;-144.19;100.00;79060.19;6189913;23;20036;-85
2022/03/09 03:09:56;;;;;;;10.93;6.47;;;;;;;-144.19;100.00;79040.50;6190447;23;20021;-86
2022/03/09 03:12:23;;;;;;;8.68;5.07;;;;;;;-144.19;100.00;79040.50;6217937;23;20439;-84
2022/03/09 03:14:49;;;;;;;13.00;6.03;;;;;;;-144.19;100.00;79052.31;6191966;23;20021;-84
2022/03/09 03:17:16;;;;;;;10.50;5.68;;;;;;;-144.19;100.00;79054.28;6187876;23;20096;-84
2022/03/09 03:19:43;;;;;;;10.18;5.93;;;;;;;-144.19;100.00;79064.13;6192005;23;20048;-86
2022/03/09 03:22:10;;;;;;;;;;;;;;;-144.19;100.00;79062.16;6190233;23;20025;-86
2022/03/09 03:24:36;;;;;;;11.80;5.70;;;;;;;-144.19;100.00;79044.44;6190406;23;19916;-86
2022/03/09 03:27:03;;;;;;;8.77;4.75;;;;;;;-144.19;100.00;79042.47;6190820;23;20059;-85
2022/03/09 03:29:29;;;;;;;9.25;5.63;;;;;;;-144.19;100.00;79048.38;6190917;23;20031;-84
2022/03/09 03:31:56;;;;;;;9.27;5.35;;;;;;;-144.19;100.00;79044.44;6190261;23;20120;-83
2022/03/09 03:34:22;;;;;;;9.15;5.55;;;;;;;-144.19;100.00;79036.56;6190046;23;20028;-85
2022/03/09 03:36:51;;;;;;;8.70;5.72;;;;;;;-144.19;100.00;79044.44;6192351;23;20021;-84
2022/03/09 03:39:17;;;;;;;9.73;5.20;;;;;;;-144.19;100.00;79024.75;6190234;23;20513;-85
2022/03/09 03:41:43;;;;;;;9.73;5.95;;;;;;;-144.19;100.00;79020.81;6189758;23;20042;-86
2022/03/09 03:44:10;;;;;;;8.15;4.82;;;;;;;-144.19;100.00;79028.69;6188564;23;20036;-86
2022/03/09 03:46:37;;;;;;;9.40;5.68;;;;;;;-144.19;100.00;79024.75;6189919;23;20020;-85
2022/03/09 03:49:03;;;;;;;8.88;5.22;;;;;;;-144.19;100.00;78999.13;6215764;23;20051;-85
2022/03/09 03:51:30;;;;;;;11.13;5.75;;;;;;;-144.19;100.00;78995.19;6189216;23;20021;-83
2022/03/09 03:53:56;;;;;;;9.50;5.10;;;;;;;-144.19;100.00;78989.28;6215161;23;20052;-84
2022/03/09 03:56:23;;;;;;;9.18;5.70;;;;;;;-144.19;100.00;79001.09;6215920;23;20775;-84
2022/03/09 03:58:49;;;;;;;10.82;5.97;;;;;;;-144.19;100.00;78995.19;6189197;23;20423;-85
2022/03/09 04:01:16;;;;;;;8.25;5.78;;;;;;;-144.19;100.00;78989.28;6188843;23;20016;-85
2022/03/09 04:03:42;;;;;;;7.95;5.07;;;;;;;-144.19;100.00;79010.94;6215126;23;20071;-85
2022/03/09 04:06:09;;;;;;;8.83;5.83;;;;;;;-144.19;100.00;79022.78;6188530;23;20025;-84
2022/03/09 04:08:35;;;;;;;11.60;6.55;;;;;;;-144.19;100.00;79026.72;6189592;23;20051;-85
2022/03/09 04:11:02;;;;;;;10.20;5.70;;;;;;;-144.19;100.00;79020.81;6214427;23;20024;-85
2022/03/09 04:13:28;;;;;;;7.55;5.68;;;;;;;-144.19;100.00;79016.84;6214873;23;20262;-85
2022/03/09 04:15:55;;;;;;;8.40;5.43;;;;;;;-144.19;100.00;79024.75;6189292;23;20024;-85
2022/03/09 04:18:21;;;;;;;11.33;6.17;;;;;;;-144.19;100.00;79018.81;6185761;23;20663;-85
2022/03/09 04:20:48;;;;;;;8.97;5.73;;;;;;;-144.19;100.00;79026.72;6189636;23;20286;-85
2022/03/09 04:23:14;;;;;;;9.00;5.70;;;;;;;-144.19;100.00;79048.38;6189806;23;20024;-85
2022/03/09 04:25:40;;;;;;;11.10;6.17;;;;;;;-144.19;100.00;79044.44;6189305;23;20250;-88
2022/03/09 04:28:07;;;;;;;9.33;5.87;;;;;;;-144.19;100.00;79036.56;6190140;23;20064;-86
2022/03/09 04:30:34;;;;;;;9.82;5.43;;;;;;;-144.19;100.00;79072.00;6216090;23;20339;-84
2022/03/09 04:33:00;;;;;;;9.50;6.30;;;;;;;-144.19;100.00;79073.97;6188633;23;20030;-85
2022/03/09 04:35:27;;;;;;;9.07;5.10;;;;;;;-144.19;100.00;79073.97;6189993;23;20102;-85
2022/03/09 04:37:53;;;;;;;9.73;5.18;;;;;;;-144.19;100.00;79050.34;6215803;23;20031;-85
2022/03/09 04:40:20;;;;;;;11.15;5.90;;;;;;;-144.19;100.00;79032.63;6216241;23;20421;-85
2022/03/09 04:42:51;;;;;;;8.07;5.60;;;;;;;-144.19;100.00;79052.31;6213875;23;20469;-86
2022/03/09 04:45:18;;;;;;;8.00;5.00;;;;;;;-144.19;100.00;79075.94;6189875;23;20026;-85
2022/03/09 04:47:44;;;;;;;9.13;5.57;;;;;;;-144.19;100.00;79079.88;6189741;23;20244;-85
2022/03/09 04:50:11;;;;;;;8.43;5.60;;;;;;;-144.19;100.00;79068.06;6189116;23;20025;-84
2022/03/09 04:52:38;;;;;;;11.13;6.05;;;;;;;-144.19;100.00;79073.97;6188660;23;20025;-85
2022/03/09 04:55:05;;;;;;;10.27;5.75;;;;;;;-144.19;100.00;79083.81;6215577;23;20189;-85
2022/03/09 04:57:31;;;;;;;12.15;5.50;;;;;;;-144.19;100.00;79111.41;6216609;23;20028;-85
2022/03/09 04:59:58;;;;;;;9.63;5.83;;;;;;;-144.19;100.00;79137.00;6214592;23;20044;-85
2022/03/09 05:02:24;;;;;;;8.77;6.67;;;;;;;-144.19;100.00;79121.25;6213217;23;20452;-85
2022/03/09 05:04:51;;;;;;;9.93;5.35;;;;;;;-144.19;100.00;79115.34;6212755;23;20025;-84
2022/03/09 05:07:17;;;;;;;11.93;5.40;;;;;;;-144.19;100.00;79125.19;6131678;23;20274;-86
2022/03/09 05:09:44;;;;;;;10.57;5.60;;;;;;;-144.19;100.00;79142.91;6128557;23;20252;-85
2022/03/09 05:12:10;;;;;;;11.32;6.90;;;;;;;-144.19;100.00;79158.69;6129808;23;20369;-83
2022/03/09 05:14:36;;;;;;;8.43;5.57;;;;;;;-144.19;100.00;79156.72;6156637;23;20421;-83
2022/03/09 05:17:03;;;;;;;9.45;6.05;;;;;;;-144.19;100.00;79162.63;6150297;23;20039;-84
2022/03/09 05:19:29;;;;;;;9.82;5.80;;;;;;;-144.19;100.00;79166.56;6185901;23;20458;-84
2022/03/09 05:21:56;;;;;;;10.18;5.72;;;;;;;-144.19;100.00;79164.59;6158177;23;20055;-83
2022/03/09 05:24:37;;;;;;;8.82;5.38;;;;;;;-144.19;100.00;79168.53;6183901;23;20300;-84
2022/03/09 05:27:04;;;;;;;12.15;5.75;;;;;;;-144.19;100.00;79164.59;6183545;23;20021;-84
2022/03/09 05:29:30;;;;;;;9.50;5.60;;;;;;;-144.19;100.00;79158.69;6184844;23;20024;-83
2022/03/09 05:31:56;;;;;;;11.83;5.77;;;;;;;-144.19;100.00;79154.72;6182731;23;20465;-83
2022/03/09 05:34:23;;;;;;;10.20;5.75;;;;;;;-144.19;100.00;79146.84;6158615;23;20052;-84
2022/03/09 05:36:49;;;;;;;9.23;5.50;;;;;;;-144.19;100.00;79162.63;6186034;23;20060;-84
2022/03/09 05:39:16;;;;;;;12.27;6.82;;;;;;;-144.19;100.00;79194.13;6183209;23;20021;-84
2022/03/09 05:41:42;;;;;;;9.83;5.43;;;;;;;-144.19;100.00;79186.25;6158484;23;20025;-82
2022/03/09 05:44:08;;;;;;;9.87;5.73;;;;;;;-144.19;100.00;79203.97;6182573;23;20244;-83
2022/03/09 05:46:35;;;;;;;7.35;4.45;;;;;;;-144.19;100.00;79213.81;6183903;23;20244;-83
2022/03/09 05:49:02;;;;;;;13.43;7.32;;;;;;;-144.19;100.00;79215.78;6184524;23;20043;-84
2022/03/09 05:51:28;;;;;;;10.45;6.72;;;;;;;-144.19;100.00;79221.72;6158505;23;20035;-83
2022/03/09 05:53:55;;;;;;;11.70;6.00;;;;;;;-144.19;100.00;79221.72;6182520;23;20024;-83
2022/03/09 05:56:21;;;;;;;8.75;6.07;;;;;;;-144.19;100.00;79225.66;6158969;23;20079;-84
2022/03/09 05:58:48;;;;;;;12.10;6.87;;;;;;;-144.19;100.00;79215.78;6185405;23;20027;-83
2022/03/09 06:01:14;;;;;;;11.30;6.07;;;;;;;-144.19;100.00;79215.78;6182668;23;20240;-84
2022/03/09 06:03:41;;;;;;;9.50;5.80;;;;;;;-144.19;100.00;79202.00;6157901;23;20028;-84
2022/03/09 06:06:07;;;;;;;13.15;6.60;;;;;;;-144.19;100.00;79166.56;6184521;23;20426;-84
2022/03/09 06:08:34;;;;;;;12.50;7.15;;;;;;;-144.19;100.00;79131.09;6184308;23;20446;-84
2022/03/09 06:11:06;;;;;;;15.07;8.50;;;;;;;-144.19;100.00;79085.78;6184662;23;20052;-85
2022/03/09 06:13:32;;;;;;;13.85;7.45;;;;;;;-144.19;100.00;79060.19;6182540;23;20476;-83
2022/03/09 06:15:59;;;;;;;22.52;8.52;;;;;;;-144.19;100.00;79018.81;6182526;23;20100;-84
2022/03/09 06:18:26;;;;;;;11.93;7.45;;;;;;;-144.19;100.00;78993.22;6184898;23;20020;-84
2022/03/09 06:20:53;;;;;;;16.40;8.27;;;;;;;-144.19;100.00;78985.34;6155829;23;20357;-85
2022/03/09 06:23:19;;;;;;;12.90;7.17;;;;;;;-144.19;100.00;78957.78;6184012;23;20236;-84
2022/03/09 06:25:45;;;;;;;12.60;7.07;;;;;;;-144.19;100.00;78963.69;6158027;23;20248;-83
2022/03/09 06:28:12;;;;;;;11.07;6.13;;;;;;;-144.19;100.00;78944.00;6185070;23;20025;-84
2022/03/09 06:30:39;;;;;;;15.00;6.45;;;;;;;-144.19;100.00;78949.91;6179289;23;20023;-84
2022/03/09 06:33:06;;;;;;;13.70;7.07;;;;;;;-144.19;100.00;78930.19;6183200;23;20025;-85
2022/03/09 06:35:32;;;;;;;8.27;4.68;;;;;;;-144.19;100.00;78922.31;6190913;23;20021;-84
2022/03/09 06:37:59;;;;;;;10.05;6.82;;;;;;;-144.19;100.00;78912.47;6164920;23;20076;-85
2022/03/09 06:40:25;;;;;;;13.70;6.10;;;;;;;-144.19;100.00;78908.53;6188883;23;20021;-84
2022/03/09 06:42:52;;;;;;;10.73;5.95;;;;;;;-144.19;100.00;78890.81;6188869;23;20341;-85
2022/03/09 06:45:23;;;;;;;16.17;6.55;;;;;;;-144.19;100.00;78894.75;6159533;23;20042;-84
2022/03/09 06:47:50;;;;;;;13.85;7.28;;;;;;;-144.19;100.00;78890.81;6176929;23;20519;-85
2022/03/09 06:50:17;;;;;;;15.02;7.10;;;;;;;-144.19;100.00;78886.88;6158770;23;20024;-85
2022/03/09 06:52:43;;;;;;;10.30;6.40;;;;;;;-144.19;100.00;78875.06;6186888;23;20442;-84
2022/03/09 06:55:12;;;;;;;9.27;5.22;;;;;;;-144.19;100.00;78882.94;6158571;23;20036;-83
2022/03/09 06:57:40;;;;;;;13.25;6.30;;;;;;;-144.19;100.00;78871.13;6184191;23;20045;-84
2022/03/09 07:00:11;;;;;;;14.50;6.85;;;;;;;-144.19;100.00;78863.22;6183239;23;20099;-83
2022/03/09 07:02:38;;;;;;;10.98;7.15;;;;;;;-144.19;100.00;78863.22;6176169;23;20052;-84
2022/03/09 07:05:06;;;;;;;12.95;6.93;;;;;;;-144.19;100.00;78855.34;6179897;23;20099;-83
2022/03/09 07:07:35;;;;;;;13.55;7.28;;;;;;;-144.19;100.00;78843.53;6183670;23;20025;-84
2022/03/09 07:10:02;;;;;;;10.90;7.22;;;;;;;-144.19;100.00;78831.72;6182717;23;20027;-84
2022/03/09 07:12:28;;;;;;;15.68;7.50;;;;;;;-144.19;100.00;78823.84;6178954;23;20376;-85
2022/03/09 07:14:55;;;;;;;16.85;7.85;;;;;;;-144.19;100.00;78815.97;6182435;23;20021;-84
2022/03/09 07:17:22;;;;;;;18.35;8.27;;;;;;;-144.19;100.00;78804.16;6185115;23;20100;-86
2022/03/09 07:19:48;;;;;;;11.77;6.37;;;;;;;-144.19;100.00;78794.31;6182129;23;20043;-87
2022/03/09 07:22:15;;;;;;;12.97;6.63;;;;;;;-144.19;100.00;78780.50;6158696;23;20025;-84
2022/03/09 07:24:41;;;;;;;10.38;6.43;;;;;;;-144.19;100.00;78768.69;6185777;23;20043;-84
2022/03/09 07:27:07;;;;;;;13.47;6.87;;;;;;;-144.19;100.00;78762.78;6188636;23;20021;-83
2022/03/09 07:29:34;;;;;;;13.90;6.40;;;;;;;-144.19;100.00;78737.19;6161329;23;20039;-84
2022/03/09 07:32:00;;;;;;;14.47;7.50;;;;;;;-144.19;100.00;78735.22;6186435;23;20327;-84
2022/03/09 07:34:27;;;;;;;12.52;7.15;;;;;;;-144.19;100.00;78731.28;6186866;23;20032;-84
2022/03/09 07:36:59;;;;;;;10.50;6.25;;;;;;;-144.19;100.00;78711.59;6186125;23;20029;-86
2022/03/09 07:39:27;;;;;;;11.90;6.13;;;;;;;-144.19;100.00;78693.84;6183690;23;20446;-86
2022/03/09 07:41:55;;;;;;;13.10;6.88;;;;;;;-144.19;100.00;78693.84;6185320;23;20021;-83
2022/03/09 07:44:23;;;;;;;11.88;6.30;;;;;;;-144.19;100.00;78670.22;6186542;23;20021;-83
2022/03/09 07:46:50;;;;;;;9.85;6.22;;;;;;;-144.19;100.00;78658.41;6186530;23;20021;-83
2022/03/09 07:49:17;;;;;;;11.40;6.63;;;;;;;-144.19;100.00;78654.47;6186655;23;20080;-83
2022/03/09 07:51:44;;;;;;;12.15;6.90;;;;;;;-144.19;100.00;78622.97;6160149;23;20021;-84
2022/03/09 07:54:11;;;;;;;9.73;6.10;;;;;;;-144.19;100.00;78615.09;6160228;23;20027;-83
2022/03/09 07:56:38;;;;;;;9.68;6.13;;;;;;;-144.19;100.00;78599.31;6185007;23;20021;-84
2022/03/09 07:59:05;;;;;;;13.98;7.15;;;;;;;-144.19;98.02;78589.47;6161536;23;20100;-83
2022/03/09 08:01:32;;;;;;;;;;;;;;;-144.19;97.34;78577.66;6187539;23;20024;-84
2022/03/09 08:03:58;;;;;;;11.95;6.55;;;;;;;-144.19;96.62;78571.75;6160193;23;19917;-83
2022/03/09 08:06:25;;;;;;;12.82;6.35;;;;;;;-144.19;93.18;78544.19;6160296;23;20021;-84
2022/03/09 08:08:52;;;;;;;12.77;6.75;;;;;;;-144.19;92.33;78532.38;6161803;23;20353;-84
2022/03/09 08:11:18;;;;;;;13.83;6.50;;;;;;;-144.19;90.12;78516.59;6187488;23;20021;-83
2022/03/09 08:13:44;;;;;;;11.95;5.85;;;;;;;-144.19;87.73;78508.72;6184698;23;20237;-83
2022/03/09 08:16:11;;;;;;;13.10;6.23;;;;;;;-144.19;86.53;78492.97;6160554;23;20025;-83
2022/03/09 08:18:38;;;;;;;9.15;6.07;;;;;;;-144.19;85.52;78485.09;6160496;23;20052;-84
2022/03/09 08:21:04;;;;;;;10.50;5.75;;;;;;;-144.19;84.76;78475.25;6186900;23;20021;-85
2022/03/09 08:23:31;;;;;;;11.20;6.30;;;;;;;-144.19;83.76;78445.72;6159350;23;20465;-85
2022/03/09 08:25:59;;;;;;;10.23;5.85;;;;;;;-144.19;83.39;78435.88;6161353;23;20027;-85
2022/03/09 08:28:26;;;;;;;9.75;6.07;;;;;;;-144.19;82.73;78435.88;6188883;23;20061;-84
2022/03/09 08:30:54;;;;;;;8.83;5.77;;;;;;;-144.19;82.44;78416.19;6174000;23;20017;-84
2022/03/09 08:33:21;;;;;;;12.32;7.13;;;;;;;-144.19;80.73;78406.31;6197721;23;20041;-84
2022/03/09 08:35:49;;;;;;;9.55;6.30;;;;;;;-144.19;80.75;78394.50;6205128;23;20017;-83
2022/03/09 08:38:23;;;;;;;11.07;6.20;;;;;;;-144.19;81.46;78378.75;6205659;23;20035;-84
2022/03/09 08:40:50;;;;;;;13.02;6.57;;;;;;;-144.19;81.07;78376.78;6178866;23;20017;-83
2022/03/09 08:43:17;;;;;;;;;;;;;;;-144.19;80.97;78353.16;6206601;23;20081;-84
2022/03/09 08:45:45;;;;;;;9.65;6.40;;;;;;;-144.19;79.60;78341.34;6180806;23;19935;-84
2022/03/09 08:48:12;;;;;;;12.15;6.90;;;;;;;-144.19;79.84;78323.63;6179844;23;20033;-84
2022/03/09 08:50:39;;;;;;;9.93;6.30;;;;;;;-144.19;78.24;78303.94;6205335;23;20028;-84
2022/03/09 08:53:09;;;;;;;9.93;6.78;;;;;;;-144.19;78.37;78309.84;6206686;23;20369;-84
2022/03/09 08:55:39;;;;;;;10.57;6.50;;;;;;;-144.19;78.45;78288.16;6180372;23;20037;-84
2022/03/09 08:58:06;;;;;;;17.20;7.45;;;;;;;-144.19;77.72;78268.47;6180096;23;20052;-84
2022/03/09 09:00:36;;;;;;;10.38;6.88;;;;;;;-144.19;77.87;78274.38;6179401;23;20072;-84
2022/03/09 09:03:04;;;;;;;11.55;6.40;;;;;;;-144.19;76.63;78256.66;6179783;23;20493;-84
2022/03/09 09:05:31;;;;;;;17.00;7.47;;;;;;;-144.19;76.94;78246.81;6206125;23;20055;-85
2022/03/09 09:07:59;;;;;;;;;;;;;;;-144.19;75.75;78221.22;6206409;23;20058;-83
2022/03/09 09:10:33;;;;;;;;;;;;;;;-144.19;75.54;78181.84;6204850;23;19923;-83
2022/03/09 09:13:00;;;;;;;;;;;;;;;-144.19;73.78;78175.94;6204812;23;19923;-84
2022/03/09 09:15:29;;;;;;;;;;;;;;;-144.19;72.26;78158.19;6204022;23;19951;-84
2022/03/09 09:17:57;;;;;;;;;;;;;;;-144.19;72.49;78154.25;6181012;23;19923;-84
2022/03/09 09:20:46;;;;;;;;;;;;;;;-144.19;70.25;78134.56;6206164;23;19920;-84
2022/03/09 09:23:13;;;;;;;;;;;;;;;-144.19;66.56;78099.13;6180194;23;19916;-84
2022/03/09 09:25:43;;;;;;;;;;;;;;;-144.19;59.82;78032.19;6203805;23;19927;-83
2022/03/09 09:28:10;;;;;;;;;;;;;;;-144.19;62.38;78051.88;6204457;23;20315;-84
2022/03/09 09:30:37;;;;;;;;;;;;;;;-144.19;64.92;78038.09;6179041;23;19923;-84
2022/03/09 09:33:04;;;;;;;;;;;;;;;-144.19;64.93;78028.22;6180585;23;20428;-84
2022/03/09 09:35:32;;;;;;;;;;;;;;;-144.19;61.05;78008.53;6204496;23;19934;-83
2022/03/09 09:38:09;;;;;;;;;;;;;;;-144.19;61.75;78006.56;6205699;23;19943;-83
2022/03/09 09:40:41;;;;;;;;;;;;;;;-144.19;63.53;78008.53;6167381;23;19916;-84
2022/03/09 09:43:09;;;;;;;;;;;;;;;-144.19;60.84;77963.25;6185120;23;20363;-83
2022/03/09 09:45:35;;;;;;;;;;;;;;;-144.19;57.58;77949.47;6183584;23;19916;-83
2022/03/09 09:48:03;;;;;;;;;;;;;;;-144.19;51.23;77866.78;6182147;23;20016;-82
2022/03/09 09:50:30;;;;;;;;;;;;;;;-144.19;51.27;77880.56;6182576;23;19916;-84
2022/03/09 09:52:56;;;;;;;;;;;;;;;-144.19;49.05;77866.78;6183879;23;19922;-85
2022/03/09 09:55:26;;;;;;;;;;;;;;;-144.19;47.25;77835.25;6183175;23;19916;-84
2022/03/09 09:57:54;;;;;;;;;;;;;;;-144.19;45.80;77829.34;6158536;23;19995;-85
2022/03/09 10:00:20;;;;;;;;;;;;;;;-144.19;47.20;77815.56;6182367;23;19948;-84
2022/03/09 10:02:47;;;;;;;;;;;;;;;-144.19;45.77;77807.69;6183363;23;19920;-83
2022/03/09 10:05:15;;;;;;;;;;;;;;;-144.19;46.70;77791.94;6157634;23;19998;-84
2022/03/09 10:08:00;;;;;;;;;;;;;;;-144.19;45.53;77756.50;6185049;23;19991;-83
2022/03/09 10:10:26;;;;;;;;;;;;;;;-144.19;43.68;77752.56;6183941;23;19916;-84
2022/03/09 10:13:16;;;;;;;;;;;;;;;-144.19;44.20;77697.44;6158058;23;19947;-82
2022/03/09 10:15:46;;;;;;;;;;;;;;;-144.19;42.05;77677.75;6157774;23;19916;-83
2022/03/09 10:18:20;;;;;;;;;;;;;;;-144.19;41.31;77693.50;6185020;23;19924;-84
2022/03/09 10:20:48;;;;;;;;;;;;;;;-144.19;41.67;77660.03;6161262;23;19920;-84
2022/03/09 10:23:16;;;;;;;;;;;;;;;-144.19;42.73;77622.63;6187823;23;19960;-83
2022/03/09 10:25:42;;;;;;;;;;;;;;;-144.19;43.22;77583.25;6183515;23;19915;-83
2022/03/09 10:28:12;;;;;;;;;;;;;;;-144.19;42.05;77579.31;6159634;23;19931;-85
2022/03/09 10:30:40;;;;;;;;;;;;;;;-144.19;41.60;77528.09;6184013;23;20336;-85
2022/03/09 10:33:11;;;;;;;;;;;;;;;-144.19;39.55;77539.91;6184265;23;19922;-84
2022/03/09 10:35:45;;;;;;;;;;;;;;;-144.19;40.07;77463.13;6186623;23;19923;-84
2022/03/09 10:38:15;;;;;;;;;;;;;;;-144.19;40.69;77343.03;6204818;23;19916;-84
2022/03/09 10:40:43;;;;;;;;;;;;;;;-144.19;37.55;77390.28;6178058;23;19939;-83
2022/03/09 10:43:12;;;;;;;;;;;;;;;-144.19;40.18;77382.41;6178669;23;19920;-83
2022/03/09 10:45:57;;;;;;;;;;;;;;;-144.19;40.46;77256.41;6204098;23;19924;-82
2022/03/09 10:48:50;;;;;;;;;;;;;;;-144.19;37.03;77268.22;6178544;23;20003;-83
2022/03/09 10:51:37;;;;;;;;;;;;;;;-144.19;37.36;77124.50;6203460;23;19932;-83
2022/03/09 10:54:08;;;;;;;;;;;;;;;-144.19;37.66;76972.94;6204512;23;19916;-84
2022/03/09 10:56:36;;;;;;;;;;;;;;;-144.19;35.98;76850.88;6203669;23;19926;-84
2022/03/09 10:59:10;;;;;;;;;;;;;;;-144.19;35.10;77220.97;6203317;23;19969;-84
2022/03/09 11:01:40;;;;;;;;;;;;;;;-144.19;36.35;77022.13;6204521;23;19940;-82
2022/03/09 11:04:16;;;;;;;;;;;;;;;-144.19;36.61;76829.22;6206251;23;19939;-86
2022/03/09 11:06:46;;;;;;;;;;;;;;;-144.19;32.13;77053.63;6176477;23;19916;-85
2022/03/09 11:09:13;;;;;;;;;;;;;;;-144.19;31.89;77051.66;6154136;23;20326;-84
2022/03/09 11:11:40;;;;;;;;;;;;;;;-144.19;33.27;77091.03;6127104;23;19925;-86
2022/03/09 11:14:06;;;;;;;;;;;;;;;-144.19;32.45;77163.88;6152270;23;20350;-85
2022/03/09 11:16:33;;;;;;;;;;;;;;;-144.19;34.45;77039.84;6139061;23;19916;-86
2022/03/09 11:19:01;;;;;;;;;;;;;;;-144.19;33.27;76850.88;6183049;23;20431;-84
2022/03/09 11:21:28;;;;;;;;;;;;;;;-144.19;31.40;76878.44;6182584;23;19916;-85
2022/03/09 11:23:54;;;;;;;;;;;;;;;-144.19;31.99;77004.41;6182000;23;19923;-83
2022/03/09 11:26:25;;;;;;;;;;;;;;;-144.19;33.37;76841.03;6184033;23;19916;-84